Time;durP1;ratioP1;P1;durP2;ratioP2;P2;SDS_P1;SDS_P2;PMS_P1;PMS_P2;Temp;Humidity;BMP_temperature;BMP_pressure;BME280_temperature;BME280_humidity;BME280_pressure;Samples;Min_cycle;Max_cycle;Signal;HPM_P1;HPM_P2
2022/04/01 00:01:21;;;;;;;10.53;9.53;;;6.10;99.90;;;;;;5055232;28;20190;-67
2022/04/01 00:03:47;;;;;;;10.97;9.80;;;6.00;99.90;;;;;;5056058;28;20187;-67
2022/04/01 00:06:12;;;;;;;10.70;9.70;;;6.00;99.90;;;;;;5054165;28;20418;-68
2022/04/01 00:08:38;;;;;;;13.33;10.07;;;5.50;99.90;;;;;;5054883;28;20251;-67
2022/04/01 00:11:04;;;;;;;10.20;9.20;;;5.90;99.90;;;;;;5055648;28;20611;-68
2022/04/01 00:13:29;;;;;;;12.03;9.77;;;6.10;99.90;;;;;;5054818;28;20170;-68
2022/04/01 00:15:55;;;;;;;11.57;10.40;;;5.70;99.90;;;;;;5054559;28;20289;-67
2022/04/01 00:18:21;;;;;;;10.80;9.70;;;6.00;99.90;;;;;;5055177;28;20185;-67
2022/04/01 00:20:47;;;;;;;12.10;10.90;;;5.60;99.90;;;;;;5055555;28;20224;-67
2022/04/01 00:23:14;;;;;;;10.37;9.40;;;6.00;99.90;;;;;;5055072;28;20205;-67
2022/04/01 00:25:41;;;;;;;11.80;10.63;;;5.80;99.90;;;;;;5055618;28;20182;-67
2022/04/01 00:28:07;;;;;;;12.70;10.63;;;5.80;99.90;;;;;;5054974;28;20261;-67
2022/04/01 00:30:34;;;;;;;10.83;9.83;;;6.20;99.90;;;;;;5055561;28;20478;-67
2022/04/01 00:33:01;;;;;;;11.65;10.25;;;6.10;99.90;;;;;;5055728;28;20793;-67
2022/04/01 00:35:27;;;;;;;13.10;9.85;;;6.10;99.90;;;;;;5053991;28;20256;-67
2022/04/01 00:37:52;;;;;;;13.52;9.93;;;6.10;99.90;;;;;;5055388;28;20248;-67
2022/04/01 00:40:19;;;;;;;15.90;11.57;;;6.00;99.90;;;;;;5054517;28;20619;-67
2022/04/01 00:42:45;;;;;;;12.15;10.13;;;5.60;99.90;;;;;;5053184;28;20178;-67
2022/04/01 00:45:11;;;;;;;11.37;9.80;;;5.70;99.90;;;;;;5054744;28;20224;-67
2022/04/01 00:47:38;;;;;;;12.15;10.30;;;5.70;99.90;;;;;;5055497;28;20391;-67
2022/04/01 00:50:05;;;;;;;12.40;10.20;;;5.60;99.90;;;;;;5054570;28;20174;-68
2022/04/01 00:52:31;;;;;;;11.15;10.02;;;5.80;99.90;;;;;;5055150;28;20184;-67
2022/04/01 00:54:57;;;;;;;11.13;10.02;;;5.80;99.90;;;;;;5055122;28;20179;-67
2022/04/01 00:57:25;;;;;;;12.10;10.90;;;5.60;99.90;;;;;;5054460;28;20182;-67
2022/04/01 00:59:52;;;;;;;12.57;11.27;;;5.90;99.90;;;;;;5055227;28;20184;-67
2022/04/01 01:02:18;;;;;;;10.90;9.85;;;5.90;99.90;;;;;;5054620;28;20189;-67
2022/04/01 01:04:45;;;;;;;11.70;10.50;;;5.90;99.90;;;;;;5054616;28;20178;-67
2022/04/01 01:07:11;;;;;;;10.65;8.93;;;6.20;99.90;;;;;;5054258;28;20411;-67
2022/04/01 01:09:37;;;;;;;10.27;9.27;;;5.50;99.90;;;;;;5054579;28;20688;-67
2022/04/01 01:12:06;;;;;;;10.50;9.60;;;5.90;99.90;;;;;;5054546;28;20211;-75
2022/04/01 01:14:34;;;;;;;10.57;8.82;;;6.00;99.90;;;;;;5054708;28;20252;-67
2022/04/01 01:17:03;;;;;;;10.82;9.75;;;5.50;99.90;;;;;;5054583;28;20213;-67
2022/04/01 01:19:32;;;;;;;12.88;11.02;;;6.00;99.90;;;;;;5054655;28;20209;-67
2022/04/01 01:21:58;;;;;;;10.85;9.85;;;5.50;99.90;;;;;;5054650;28;20543;-67
2022/04/01 01:24:37;;;;;;;11.32;10.23;;;5.70;99.90;;;;;;5053946;28;20217;-67
2022/04/01 01:27:06;;;;;;;10.38;9.48;;;6.00;99.90;;;;;;5054209;28;20158;-67
2022/04/01 01:29:32;;;;;;;11.88;10.20;;;5.50;99.90;;;;;;5054121;28;20182;-67
2022/04/01 01:32:04;;;;;;;12.35;9.38;;;5.90;99.90;;;;;;5054400;28;20575;-67
2022/04/01 01:34:34;;;;;;;10.40;8.85;;;5.80;99.90;;;;;;5054370;28;20578;-67
2022/04/01 01:37:01;;;;;;;9.95;8.95;;;6.00;99.90;;;;;;5054191;28;20205;-67
2022/04/01 01:39:27;;;;;;;12.10;9.95;;;5.40;99.90;;;;;;5053620;28;20178;-67
2022/04/01 01:41:53;;;;;;;10.23;9.07;;;5.50;99.90;;;;;;5054377;28;20542;-67
2022/04/01 01:44:21;;;;;;;10.80;9.70;;;5.90;99.90;;;;;;5053557;28;20799;-67
2022/04/01 01:46:47;;;;;;;9.25;8.45;;;5.40;99.90;;;;;;5054367;28;20189;-67
2022/04/01 01:49:13;;;;;;;10.25;9.25;;;5.70;99.90;;;;;;5053549;28;20208;-67
2022/04/01 01:54:43;;;;;;;10.05;9.02;;;5.60;99.90;;;;;;5053659;28;20490;-67
2022/04/01 01:57:10;;;;;;;8.13;7.32;;;5.60;99.90;;;;;;5053450;28;20163;-68
2022/04/01 01:59:36;;;;;;;9.15;8.00;;;5.40;99.90;;;;;;5053837;28;20181;-67
2022/04/01 02:02:05;;;;;;;9.95;8.25;;;5.20;99.90;;;;;;5053793;28;20213;-68
2022/04/01 02:04:32;;;;;;;7.55;6.82;;;5.70;99.90;;;;;;5053476;28;20170;-67
2022/04/01 02:06:59;;;;;;;8.18;7.38;;;5.80;99.90;;;;;;5052553;28;20209;-67
2022/04/01 02:09:25;;;;;;;9.85;8.85;;;5.20;99.90;;;;;;5053075;28;20201;-67
2022/04/01 02:11:52;;;;;;;11.60;8.20;;;5.40;99.90;;;;;;5053617;28;20201;-67
2022/04/01 02:14:18;;;;;;;9.05;8.15;;;5.70;99.90;;;;;;5052084;28;20264;-67
2022/04/01 02:16:44;;;;;;;10.27;9.18;;;5.40;99.90;;;;;;5052229;28;20218;-67
2022/04/01 02:19:13;;;;;;;9.40;8.57;;;5.30;99.90;;;;;;5051725;28;20637;-67
2022/04/01 02:21:39;;;;;;;8.90;8.00;;;5.70;99.90;;;;;;5053460;28;20305;-67
2022/04/01 02:24:10;;;;;;;8.57;7.50;;;5.80;99.90;;;;;;5053779;28;20722;-67
2022/04/01 02:26:36;;;;;;;9.40;7.03;;;5.30;99.90;;;;;;5053666;28;20218;-67
2022/04/01 02:29:04;;;;;;;8.25;7.25;;;5.60;99.90;;;;;;5053274;28;20174;-67
2022/04/01 02:31:33;;;;;;;10.85;8.38;;;5.60;99.90;;;;;;5052559;28;20178;-68
2022/04/01 02:33:59;;;;;;;8.10;7.07;;;5.30;99.90;;;;;;5053194;28;20174;-67
2022/04/01 02:36:25;;;;;;;7.27;6.57;;;5.60;99.90;;;;;;5052641;28;20209;-67
2022/04/01 02:38:50;;;;;;;7.97;7.00;;;5.20;99.90;;;;;;5053329;28;20458;-67
2022/04/01 02:41:16;;;;;;;8.17;7.47;;;5.60;99.90;;;;;;5052798;28;20185;-67
2022/04/01 02:43:42;;;;;;;7.87;7.17;;;5.90;99.90;;;;;;5053121;28;20178;-67
2022/04/01 02:46:10;;;;;;;8.02;7.28;;;5.20;99.90;;;;;;5053284;28;20183;-67
2022/04/01 02:48:36;;;;;;;8.00;6.93;;;5.60;99.90;;;;;;5052960;28;20184;-67
2022/04/01 02:51:02;;;;;;;9.67;8.77;;;5.40;99.90;;;;;;5052992;28;20264;-67
2022/04/01 02:53:28;;;;;;;8.85;7.88;;;5.70;99.90;;;;;;5052270;28;20435;-67
2022/04/01 02:55:54;;;;;;;8.53;7.63;;;5.60;99.90;;;;;;5052927;28;20288;-67
2022/04/01 02:58:20;;;;;;;8.35;7.50;;;5.70;99.90;;;;;;5052164;28;20458;-67
2022/04/01 03:00:47;;;;;;;8.90;7.90;;;5.20;99.90;;;;;;5052449;28;20182;-67
2022/04/01 03:03:12;;;;;;;8.10;7.30;;;5.60;99.90;;;;;;5052137;28;20196;-68
2022/04/01 03:05:42;;;;;;;8.90;8.07;;;5.40;99.90;;;;;;5052337;28;20626;-67
2022/04/01 03:08:09;;;;;;;10.32;9.25;;;5.80;99.90;;;;;;5052950;28;20877;-67
2022/04/01 03:10:39;;;;;;;9.35;8.45;;;5.20;99.90;;;;;;5052343;28;20182;-67
2022/04/01 03:13:08;;;;;;;8.30;7.50;;;5.60;99.90;;;;;;5052447;28;20174;-67
2022/04/01 03:15:34;;;;;;;8.88;8.07;;;5.60;99.90;;;;;;5051686;28;20569;-67
2022/04/01 03:18:00;;;;;;;8.07;7.33;;;5.60;99.90;;;;;;5052295;28;20178;-66
2022/04/01 03:20:29;;;;;;;7.82;7.13;;;5.50;99.90;;;;;;5052050;28;20490;-67
2022/04/01 03:22:55;;;;;;;8.10;7.28;;;5.60;99.90;;;;;;5051174;28;20696;-67
2022/04/01 03:25:21;;;;;;;8.60;7.70;;;5.50;99.90;;;;;;5051617;28;20626;-67
2022/04/01 03:27:48;;;;;;;8.90;8.00;;;5.50;99.90;;;;;;5052732;28;20178;-67
2022/04/01 03:30:16;;;;;;;9.10;8.30;;;5.50;99.90;;;;;;5051920;28;20408;-67
2022/04/01 03:32:43;;;;;;;9.05;8.23;;;5.70;99.90;;;;;;5052518;28;20261;-67
2022/04/01 03:35:15;;;;;;;8.98;8.05;;;5.40;99.90;;;;;;5052389;28;20262;-67
2022/04/01 03:37:42;;;;;;;9.10;8.30;;;5.40;99.90;;;;;;5052391;28;20170;-67
2022/04/01 03:40:10;;;;;;;8.48;7.70;;;4.90;99.90;;;;;;5052343;28;20176;-66
2022/04/01 03:42:35;;;;;;;9.55;8.65;;;5.10;99.90;;;;;;5051732;28;20260;-67
2022/04/01 03:45:03;;;;;;;8.30;7.63;;;5.20;99.90;;;;;;5052016;28;20197;-67
2022/04/01 03:47:44;;;;;;;7.60;6.90;;;5.20;99.90;;;;;;5051650;28;20488;-67
2022/04/01 03:50:11;;;;;;;7.80;7.13;;;5.20;99.90;;;;;;5052301;28;20214;-67
2022/04/01 03:52:38;;;;;;;8.60;7.70;;;4.80;99.90;;;;;;5051941;28;20169;-67
2022/04/01 03:55:08;;;;;;;8.48;7.78;;;4.80;99.90;;;;;;5051945;28;20178;-66
2022/04/01 03:57:40;;;;;;;8.02;7.25;;;5.00;99.90;;;;;;5050257;28;20173;-66
2022/04/01 04:00:14;;;;;;;8.57;7.40;;;5.00;99.90;;;;;;5051989;28;20637;-67
2022/04/01 04:02:42;;;;;;;9.18;8.35;;;5.40;99.90;;;;;;5052186;28;20166;-66
2022/04/01 04:05:09;;;;;;;9.15;8.35;;;4.70;99.90;;;;;;5050804;28;20186;-67
2022/04/01 04:07:36;;;;;;;8.18;7.53;;;5.30;99.90;;;;;;5051184;28;20200;-66
2022/04/01 04:10:07;;;;;;;7.55;6.80;;;5.20;99.90;;;;;;5052026;28;20180;-67
2022/04/01 04:12:35;;;;;;;6.35;5.85;;;5.20;99.90;;;;;;5051497;28;20174;-67
2022/04/01 04:15:02;;;;;;;10.07;8.80;;;5.10;99.90;;;;;;5052326;28;20188;-67
2022/04/01 04:17:36;;;;;;;8.18;7.38;;;5.20;99.90;;;;;;5053414;28;20178;-66
2022/04/01 04:20:05;;;;;;;11.05;9.00;;;5.20;99.90;;;;;;5055931;28;20173;-66
2022/04/01 04:22:51;;;;;;;8.00;7.20;;;5.30;99.90;;;;;;5055159;28;20166;-67
2022/04/01 04:25:23;;;;;;;8.50;7.78;;;5.30;99.90;;;;;;5055327;28;20163;-67
2022/04/01 04:27:57;;;;;;;8.70;7.50;;;4.80;99.90;;;;;;5055550;28;20193;-66
2022/04/01 04:30:55;;;;;;;8.50;7.20;;;4.80;99.90;;;;;;5054853;28;20209;-67
2022/04/01 04:33:28;;;;;;;7.38;6.68;;;5.20;99.90;;;;;;5055317;28;20170;-67
2022/04/01 04:35:54;;;;;;;8.15;7.35;;;4.90;99.90;;;;;;5055816;28;20221;-66
2022/04/01 04:38:22;;;;;;;11.37;9.70;;;4.60;99.90;;;;;;5054536;28;20202;-67
2022/04/01 04:40:49;;;;;;;8.35;7.65;;;4.80;99.90;;;;;;5055308;28;20200;-67
2022/04/01 04:43:18;;;;;;;10.07;9.15;;;5.30;99.90;;;;;;5055321;28;20248;-67
2022/04/01 04:45:54;;;;;;;9.48;8.57;;;4.80;99.90;;;;;;5055273;28;20177;-66
2022/04/01 04:48:20;;;;;;;7.80;7.10;;;5.50;99.90;;;;;;5054744;28;20223;-67
2022/04/01 04:50:47;;;;;;;9.30;8.30;;;4.70;99.90;;;;;;5054996;28;20182;-67
2022/04/01 04:53:13;;;;;;;9.13;8.23;;;4.90;99.90;;;;;;5055593;28;20215;-66
2022/04/01 04:55:41;;;;;;;8.48;7.15;;;4.70;99.90;;;;;;5054382;28;20208;-67
2022/04/01 04:58:10;;;;;;;8.50;7.70;;;5.40;99.90;;;;;;5055046;28;20622;-68
2022/04/01 05:00:38;;;;;;;9.23;8.43;;;4.90;99.90;;;;;;5054494;28;20177;-67
2022/04/01 05:03:23;;;;;;;8.02;7.35;;;4.90;99.90;;;;;;5053686;28;20181;-67
2022/04/01 05:05:56;;;;;;;8.30;7.55;;;5.20;99.90;;;;;;5054793;28;20166;-67
2022/04/01 05:08:30;;;;;;;8.30;7.38;;;5.30;99.90;;;;;;5054562;28;20162;-67
2022/04/01 05:11:13;;;;;;;9.13;8.23;;;5.20;99.90;;;;;;5054878;28;20230;-66
2022/04/01 05:14:12;;;;;;;8.80;7.47;;;5.20;99.90;;;;;;5054241;28;20194;-66
2022/04/01 05:16:57;;;;;;;7.50;6.80;;;4.90;99.90;;;;;;5053859;28;20428;-67
2022/04/01 05:19:27;;;;;;;8.02;7.22;;;4.80;99.90;;;;;;5053861;28;20552;-67
2022/04/01 05:22:09;;;;;;;9.55;8.13;;;5.00;99.90;;;;;;5054248;28;20221;-67
2022/04/01 05:24:48;;;;;;;6.75;6.25;;;5.00;99.90;;;;;;5054069;28;20204;-66
2022/04/01 05:27:24;;;;;;;7.90;7.22;;;5.10;99.90;;;;;;5054281;28;20178;-67
2022/04/01 05:30:02;;;;;;;8.90;8.20;;;5.40;99.90;;;;;;5054749;28;20185;-67
2022/04/01 05:32:32;;;;;;;10.48;7.60;;;5.50;99.90;;;;;;5053620;28;20166;-67
2022/04/01 05:35:00;;;;;;;9.00;8.20;;;4.80;99.90;;;;;;5054195;28;20660;-67
2022/04/01 05:37:28;;;;;;;7.93;7.22;;;5.30;99.90;;;;;;5053331;28;20541;-67
2022/04/01 05:39:55;;;;;;;8.63;7.57;;;4.90;99.90;;;;;;5052942;28;20597;-67
2022/04/01 05:42:22;;;;;;;7.82;7.03;;;5.10;99.90;;;;;;5053585;28;20519;-68
2022/04/01 05:44:51;;;;;;;8.15;7.47;;;5.20;99.90;;;;;;5053903;28;20596;-67
2022/04/01 05:47:21;;;;;;;8.00;7.30;;;4.90;99.90;;;;;;5053542;28;20174;-66
2022/04/01 05:49:47;;;;;;;9.00;8.20;;;4.80;99.90;;;;;;5054089;28;20182;-67
2022/04/01 05:52:13;;;;;;;8.63;7.93;;;5.40;99.90;;;;;;5054190;28;20185;-67
2022/04/01 05:54:41;;;;;;;7.72;7.13;;;5.10;99.90;;;;;;5053262;28;20395;-67
2022/04/01 05:57:10;;;;;;;8.13;7.38;;;5.20;99.90;;;;;;5053785;28;20210;-66
2022/04/01 05:59:37;;;;;;;6.90;6.35;;;5.30;99.90;;;;;;5051940;28;20181;-67
2022/04/01 06:02:20;;;;;;;8.00;7.30;;;5.20;99.90;;;;;;5053503;28;20182;-66
2022/04/01 06:05:29;;;;;;;7.93;7.25;;;4.80;99.90;;;;;;5052777;28;20174;-67
2022/04/01 06:08:12;;;;;;;8.50;7.80;;;5.10;99.90;;;;;;5053744;28;20209;-66
2022/04/01 06:10:56;;;;;;;9.00;8.18;;;5.00;99.90;;;;;;5053131;28;20166;-66
2022/04/01 06:13:31;;;;;;;7.93;7.32;;;5.00;99.90;;;;;;5053101;28;20166;-67
2022/04/01 06:16:20;;;;;;;7.43;6.82;;;5.10;99.90;;;;;;5053504;28;20209;-67
2022/04/01 06:19:08;;;;;;;8.02;7.03;;;4.90;99.90;;;;;;5053676;28;20494;-67
2022/04/01 06:21:48;;;;;;;7.13;6.53;;;5.10;99.90;;;;;;5052941;28;20297;-67
2022/04/01 06:24:32;;;;;;;7.88;7.20;;;5.10;99.90;;;;;;5053224;28;20170;-67
2022/04/01 06:27:02;;;;;;;6.85;6.25;;;5.10;99.90;;;;;;5053619;28;20559;-67
2022/04/01 06:29:41;;;;;;;8.10;6.63;;;5.30;99.90;;;;;;5052823;28;20228;-67
2022/04/01 06:32:33;;;;;;;7.47;6.78;;;5.20;99.90;;;;;;5053379;28;20336;-67
2022/04/01 06:34:59;;;;;;;6.60;6.10;;;5.20;99.90;;;;;;5044858;28;20220;-67
2022/04/01 06:37:32;;;;;;;6.27;5.67;;;5.20;99.90;;;;;;5052321;28;20302;-67
2022/04/01 06:40:12;;;;;;;6.20;5.65;;;5.20;99.90;;;;;;5052614;28;20166;-67
2022/04/01 06:42:39;;;;;;;7.25;6.75;;;5.10;99.90;;;;;;5052386;28;20533;-67
2022/04/01 06:45:10;;;;;;;6.47;5.90;;;5.00;99.90;;;;;;5051728;28;20188;-67
2022/04/01 06:47:37;;;;;;;6.85;6.35;;;4.70;99.90;;;;;;5052684;28;20253;-67
2022/04/01 06:50:03;;;;;;;5.90;5.40;;;4.50;99.90;;;;;;5052804;28;20602;-67
2022/04/01 06:52:30;;;;;;;7.05;5.40;;;4.90;99.90;;;;;;5051428;28;20221;-67
2022/04/01 06:54:56;;;;;;;6.22;5.57;;;5.00;99.90;;;;;;5053061;28;20190;-67
2022/04/01 06:57:22;;;;;;;6.32;5.78;;;4.80;99.90;;;;;;5053010;28;20523;-67
2022/04/01 06:59:49;;;;;;;6.28;5.72;;;5.00;99.90;;;;;;5052232;28;20256;-66
2022/04/01 07:02:15;;;;;;;6.30;5.70;;;5.10;99.90;;;;;;5052809;28;20178;-67
2022/04/01 07:04:41;;;;;;;6.40;5.87;;;4.80;99.90;;;;;;5052142;28;20619;-67
2022/04/01 07:07:07;;;;;;;5.60;5.10;;;4.90;99.90;;;;;;5052630;28;20178;-67
2022/04/01 07:09:35;;;;;;;7.10;6.50;;;5.20;99.90;;;;;;5052388;28;20516;-67
2022/04/01 07:12:01;;;;;;;7.47;6.70;;;4.60;99.90;;;;;;5052603;28;20170;-67
2022/04/01 07:14:35;;;;;;;6.00;5.47;;;5.10;99.90;;;;;;5050808;28;20538;-67
2022/04/01 07:17:01;;;;;;;6.20;5.65;;;5.00;99.90;;;;;;5051407;28;20232;-67
2022/04/01 07:19:27;;;;;;;6.15;5.65;;;4.70;99.90;;;;;;5052060;28;20538;-67
2022/04/01 07:21:53;;;;;;;7.18;6.03;;;5.00;99.90;;;;;;5052971;28;20230;-67
2022/04/01 07:24:19;;;;;;;6.60;6.10;;;4.30;99.90;;;;;;5052774;28;20191;-67
2022/04/01 07:26:45;;;;;;;6.57;5.70;;;4.70;99.90;;;;;;5051643;28;20695;-67
2022/04/01 07:29:12;;;;;;;5.90;5.50;;;4.90;99.90;;;;;;5052494;28;20228;-67
2022/04/01 07:34:37;;;;;;;6.15;5.50;;;5.10;99.90;;;;;;5051872;28;20550;-67
2022/04/01 07:37:04;;;;;;;6.30;5.78;;;4.70;99.90;;;;;;5052081;28;20593;-67
2022/04/01 07:39:31;;;;;;;6.47;5.95;;;5.00;99.90;;;;;;5051474;28;20176;-67
2022/04/01 07:41:57;;;;;;;5.60;5.20;;;5.00;99.90;;;;;;5052397;28;20182;-67
2022/04/01 07:44:23;;;;;;;6.93;6.32;;;4.90;99.90;;;;;;5052234;28;20182;-67
2022/04/01 07:46:50;;;;;;;5.93;5.43;;;4.80;99.90;;;;;;5051747;28;20186;-67
2022/04/01 07:49:17;;;;;;;6.35;5.63;;;4.90;99.90;;;;;;5052580;28;20184;-67
2022/04/01 07:51:43;;;;;;;6.03;5.53;;;4.40;99.90;;;;;;5054228;28;20173;-66
2022/04/01 07:54:11;;;;;;;6.35;5.85;;;4.80;99.90;;;;;;5055115;28;20177;-66
2022/04/01 07:56:37;;;;;;;7.03;6.40;;;5.00;99.90;;;;;;5055580;28;20610;-66
2022/04/01 07:59:04;;;;;;;7.00;6.40;;;4.60;99.90;;;;;;5056211;28;20240;-68
2022/04/01 08:01:30;;;;;;;6.18;5.68;;;4.90;99.90;;;;;;5055404;28;20447;-68
2022/04/01 08:03:56;;;;;;;5.67;4.83;;;5.20;99.90;;;;;;5056529;28;20673;-67
2022/04/01 08:06:21;;;;;;;5.33;4.93;;;4.80;99.90;;;;;;5056001;28;20387;-68
2022/04/01 08:08:47;;;;;;;5.60;5.20;;;4.60;99.90;;;;;;5055370;28;20773;-66
2022/04/01 08:11:13;;;;;;;5.60;5.17;;;5.20;99.90;;;;;;5055963;28;20174;-68
2022/04/01 08:13:39;;;;;;;6.30;5.80;;;5.20;99.90;;;;;;5055082;28;20758;-67
2022/04/01 08:16:05;;;;;;;7.07;5.97;;;5.00;99.90;;;;;;5054323;28;20206;-68
2022/04/01 08:18:30;;;;;;;5.65;5.15;;;4.90;99.90;;;;;;5055256;28;20178;-68
2022/04/01 08:20:56;;;;;;;6.27;5.77;;;4.90;99.90;;;;;;5055601;28;20309;-68
2022/04/01 08:23:22;;;;;;;6.03;5.53;;;5.00;99.90;;;;;;5055493;28;20178;-68
2022/04/01 08:25:48;;;;;;;6.47;5.97;;;4.90;99.90;;;;;;5054819;28;20182;-68
2022/04/01 08:28:15;;;;;;;6.20;5.60;;;5.00;99.90;;;;;;5055698;28;20225;-68
2022/04/01 08:30:41;;;;;;;6.18;5.68;;;5.10;99.90;;;;;;5053689;28;20185;-66
2022/04/01 08:33:07;;;;;;;5.07;4.57;;;4.80;99.70;;;;;;5055724;28;20680;-68
2022/04/01 08:35:34;;;;;;;5.90;5.35;;;4.70;99.90;;;;;;5054523;28;20954;-68
2022/04/01 08:38:00;;;;;;;5.47;5.00;;;4.70;99.90;;;;;;5055104;28;20188;-68
2022/04/01 08:40:29;;;;;;;6.00;5.50;;;4.90;99.90;;;;;;5055364;28;20176;-68
2022/04/01 08:42:55;;;;;;;5.90;5.40;;;4.80;99.80;;;;;;5055377;28;20178;-67
2022/04/01 08:45:21;;;;;;;5.97;5.47;;;5.20;99.90;;;;;;5055351;28;20182;-68
2022/04/01 08:47:48;;;;;;;5.10;4.70;;;4.80;99.80;;;;;;5054970;28;20482;-68
2022/04/01 08:50:13;;;;;;;5.13;4.57;;;4.30;99.90;;;;;;5055212;28;20178;-67
2022/04/01 08:52:40;;;;;;;4.83;4.43;;;4.90;99.90;;;;;;5054341;28;20185;-68
2022/04/01 08:55:09;;;;;;;5.70;5.22;;;4.70;99.90;;;;;;5055011;28;20170;-67
2022/04/01 08:57:36;;;;;;;5.55;5.13;;;4.70;99.90;;;;;;5054488;28;20255;-68
2022/04/01 09:00:22;;;;;;;6.13;5.50;;;4.30;99.90;;;;;;5055305;28;20518;-68
2022/04/01 09:03:08;;;;;;;5.18;4.78;;;4.70;99.90;;;;;;5053438;28;20177;-67
2022/04/01 09:05:35;;;;;;;6.38;4.75;;;4.70;99.90;;;;;;5054512;28;20174;-68
2022/04/01 09:08:05;;;;;;;5.65;4.95;;;4.40;99.90;;;;;;5054668;28;20322;-68
2022/04/01 09:10:48;;;;;;;5.63;5.15;;;4.40;99.90;;;;;;5055268;28;20182;-67
2022/04/01 09:13:14;;;;;;;5.63;5.22;;;4.10;99.90;;;;;;5054919;28;20158;-67
2022/04/01 09:15:42;;;;;;;5.80;5.30;;;4.70;99.90;;;;;;5053920;28;20213;-68
2022/04/01 09:18:08;;;;;;;8.60;5.35;;;4.20;99.90;;;;;;5054439;28;20633;-68
2022/04/01 09:20:51;;;;;;;6.10;5.63;;;4.40;99.90;;;;;;5053378;28;20221;-65
2022/04/01 09:23:24;;;;;;;5.88;5.43;;;4.60;99.90;;;;;;5054793;28;20177;-66
2022/04/01 09:25:52;;;;;;;8.57;6.32;;;4.50;99.90;;;;;;5053741;28;20263;-68
2022/04/01 09:28:25;;;;;;;5.97;5.47;;;4.80;99.90;;;;;;5054250;28;20597;-66
2022/04/01 09:31:12;;;;;;;6.68;5.53;;;4.40;99.90;;;;;;5053615;28;20177;-67
2022/04/01 09:33:43;;;;;;;5.95;5.45;;;4.60;99.90;;;;;;5053890;28;20177;-68
2022/04/01 09:36:15;;;;;;;5.82;5.43;;;4.70;99.80;;;;;;5054339;28;20204;-67
2022/04/01 09:38:58;;;;;;;5.88;5.45;;;4.80;99.90;;;;;;5053961;28;20178;-67
2022/04/01 09:41:37;;;;;;;6.35;5.85;;;5.20;99.90;;;;;;5054441;28;20161;-68
2022/04/01 09:44:27;;;;;;;6.88;5.95;;;5.10;99.90;;;;;;5053938;28;20681;-67
2022/04/01 09:46:59;;;;;;;7.20;6.50;;;5.20;99.90;;;;;;5053679;28;20382;-68
2022/04/01 09:49:42;;;;;;;5.97;5.50;;;5.40;99.90;;;;;;5054142;28;20248;-67
2022/04/01 09:52:16;;;;;;;7.32;6.40;;;4.90;99.90;;;;;;5053097;28;20170;-67
2022/04/01 09:54:46;;;;;;;6.82;6.32;;;5.20;99.90;;;;;;5053789;28;20504;-68
2022/04/01 09:57:13;;;;;;;6.57;5.85;;;5.30;99.90;;;;;;5054062;28;20275;-66
2022/04/01 09:59:41;;;;;;;5.82;5.28;;;5.20;99.90;;;;;;5053341;28;20182;-68
2022/04/01 10:02:07;;;;;;;6.10;5.50;;;5.50;99.90;;;;;;5052690;28;20193;-67
2022/04/01 10:04:32;;;;;;;6.50;5.43;;;5.00;99.80;;;;;;5053814;28;20169;-67
2022/04/01 10:07:01;;;;;;;7.60;6.50;;;5.40;99.90;;;;;;5052872;28;20542;-67
2022/04/01 10:09:29;;;;;;;8.02;6.05;;;5.60;99.90;;;;;;5053431;28;20178;-67
2022/04/01 10:11:57;;;;;;;7.20;6.07;;;5.40;99.90;;;;;;5053127;28;20212;-68
2022/04/01 10:14:27;;;;;;;7.15;6.45;;;5.50;99.90;;;;;;5051470;28;20218;-68
2022/04/01 10:16:55;;;;;;;6.45;5.40;;;5.00;99.90;;;;;;5051762;28;20205;-68
2022/04/01 10:19:42;;;;;;;6.85;6.10;;;5.00;99.90;;;;;;5053307;28;20217;-67
2022/04/01 10:22:07;;;;;;;7.78;7.05;;;5.00;99.90;;;;;;5053238;28;20248;-67
2022/04/01 10:24:46;;;;;;;6.50;6.00;;;5.00;99.90;;;;;;5053455;28;20572;-67
2022/04/01 10:27:33;;;;;;;6.45;5.85;;;4.90;99.90;;;;;;5053480;28;20677;-67
2022/04/01 10:29:59;;;;;;;5.63;5.13;;;5.30;99.90;;;;;;5052874;28;20748;-67
2022/04/01 10:32:31;;;;;;;5.95;5.45;;;5.20;99.90;;;;;;5053234;28;20178;-67
2022/04/01 10:34:59;;;;;;;7.30;6.60;;;4.80;99.90;;;;;;5052935;28;20288;-67
2022/04/01 10:37:27;;;;;;;8.77;7.13;;;5.10;99.90;;;;;;5052975;28;20621;-67
2022/04/01 10:40:19;;;;;;;6.30;5.70;;;5.20;99.90;;;;;;5052512;28;20271;-67
2022/04/01 10:42:46;;;;;;;6.60;6.10;;;5.50;99.90;;;;;;5051009;28;20216;-67
2022/04/01 10:45:15;;;;;;;8.43;7.68;;;5.40;99.90;;;;;;5053068;28;20170;-67
2022/04/01 10:53:48;;;;;;;7.85;7.15;;;5.40;99.90;;;;;;5052333;28;20257;-67
2022/04/01 10:56:36;;;;;;;7.75;7.05;;;5.10;99.90;;;;;;5052910;28;20220;-67
2022/04/01 10:59:13;;;;;;;6.30;5.70;;;5.30;99.90;;;;;;5052308;28;20174;-67
2022/04/01 11:01:57;;;;;;;6.32;5.72;;;5.20;99.90;;;;;;5052184;28;20173;-67
2022/04/01 11:04:26;;;;;;;7.88;7.18;;;5.00;99.90;;;;;;5052693;28;20227;-67
2022/04/01 11:07:05;;;;;;;8.93;8.23;;;5.40;99.90;;;;;;5052249;28;20264;-67
2022/04/01 11:09:53;;;;;;;8.18;7.43;;;5.10;99.90;;;;;;5052812;28;20172;-67
2022/04/01 11:12:19;;;;;;;7.07;6.47;;;5.30;99.90;;;;;;5052516;28;20538;-67
2022/04/01 11:14:54;;;;;;;7.40;6.70;;;5.10;99.90;;;;;;5052340;28;20178;-67
2022/04/01 11:17:21;;;;;;;7.60;6.90;;;4.70;99.90;;;;;;5051466;28;20522;-67
2022/04/01 11:20:10;;;;;;;6.95;6.35;;;4.70;99.90;;;;;;5051837;28;20184;-67
2022/04/01 11:22:39;;;;;;;6.45;5.70;;;5.10;99.90;;;;;;5052543;28;20181;-67
2022/04/01 11:25:15;;;;;;;7.07;6.38;;;4.90;99.90;;;;;;5051001;28;20185;-67
2022/04/01 11:28:11;;;;;;;6.25;5.65;;;4.70;99.90;;;;;;5051959;28;20173;-67
2022/04/01 11:30:54;;;;;;;7.10;6.00;;;4.60;99.90;;;;;;5052376;28;20626;-67
2022/04/01 11:33:21;;;;;;;7.05;6.05;;;4.80;99.90;;;;;;5052434;28;20223;-67
2022/04/01 11:35:50;;;;;;;7.53;6.20;;;5.00;99.90;;;;;;5051765;28;20204;-67
2022/04/01 11:38:18;;;;;;;7.55;6.95;;;5.00;99.90;;;;;;5052169;28;20520;-67
2022/04/01 11:40:46;;;;;;;7.72;6.70;;;4.80;99.90;;;;;;5052061;28;20289;-67
2022/04/01 11:43:19;;;;;;;6.88;6.18;;;4.40;99.90;;;;;;5052080;28;20174;-67
2022/04/01 11:45:59;;;;;;;6.70;6.10;;;4.60;99.90;;;;;;5051718;28;20177;-67
2022/04/01 11:48:27;;;;;;;7.13;6.40;;;4.80;99.90;;;;;;5052836;28;20181;-67
2022/04/01 11:51:15;;;;;;;6.65;6.05;;;5.00;99.90;;;;;;5052007;28;20181;-67
2022/04/01 11:53:50;;;;;;;9.50;6.78;;;4.40;99.90;;;;;;5051715;28;20166;-74
2022/04/01 11:56:21;;;;;;;8.25;7.47;;;4.50;99.90;;;;;;5052019;28;20195;-67
2022/04/01 11:58:47;;;;;;;7.63;6.68;;;5.00;99.90;;;;;;5050399;28;20636;-67
2022/04/01 12:01:18;;;;;;;10.87;7.30;;;4.70;99.90;;;;;;5052525;28;20219;-67
2022/04/01 12:03:44;;;;;;;7.80;7.00;;;5.40;99.90;;;;;;5051272;28;20440;-67
2022/04/01 12:08:54;;;;;;;8.23;7.47;;;5.10;99.90;;;;;;5051730;28;20197;-67
2022/04/01 12:11:19;;;;;;;7.20;6.50;;;5.40;99.90;;;;;;5052149;28;20213;-67
2022/04/01 12:13:51;;;;;;;7.40;6.80;;;5.40;99.90;;;;;;5051498;28;20178;-67
2022/04/01 12:16:18;;;;;;;6.63;6.13;;;5.40;99.90;;;;;;5052126;28;20214;-67
2022/04/01 12:18:49;;;;;;;7.72;6.53;;;5.20;99.90;;;;;;5051473;28;20286;-68
2022/04/01 12:21:23;;;;;;;7.05;6.40;;;5.50;99.90;;;;;;5052071;28;20304;-67
2022/04/01 12:23:51;;;;;;;7.50;6.63;;;4.80;99.90;;;;;;5051419;28;20515;-67
2022/04/01 12:26:20;;;;;;;7.28;6.55;;;5.30;99.90;;;;;;5051654;28;20174;-67
2022/04/01 12:28:50;;;;;;;8.10;6.75;;;5.50;99.90;;;;;;5051506;28;20174;-67
2022/04/01 12:31:17;;;;;;;9.23;7.97;;;4.90;99.90;;;;;;5051550;28;20180;-67
2022/04/01 12:33:50;;;;;;;7.22;6.63;;;5.10;99.90;;;;;;5051836;28;20198;-67
2022/04/01 12:36:28;;;;;;;8.50;7.65;;;5.30;99.90;;;;;;5051808;28;20273;-67
2022/04/01 12:39:05;;;;;;;8.32;6.80;;;5.20;99.90;;;;;;5053890;28;20196;-67
2022/04/01 12:41:31;;;;;;;6.45;5.95;;;5.00;99.90;;;;;;5055613;28;20491;-67
2022/04/01 12:43:59;;;;;;;9.90;6.53;;;4.60;99.90;;;;;;5054819;28;20228;-67
2022/04/01 12:46:34;;;;;;;7.30;6.50;;;4.80;99.90;;;;;;5055350;28;20797;-67
2022/04/01 12:49:21;;;;;;;8.65;7.80;;;4.70;99.90;;;;;;5054356;28;20641;-67
2022/04/01 12:51:59;;;;;;;9.85;7.95;;;5.20;99.90;;;;;;5054670;28;20162;-68
2022/04/01 12:54:28;;;;;;;8.25;7.43;;;4.90;99.90;;;;;;5055169;28;20220;-67
2022/04/01 12:56:54;;;;;;;7.45;6.75;;;5.30;99.90;;;;;;5054527;28;20202;-67
2022/04/01 12:59:22;;;;;;;7.75;7.05;;;5.00;99.90;;;;;;5055121;28;20228;-67
2022/04/01 13:02:13;;;;;;;9.90;6.50;;;4.70;99.90;;;;;;5054487;28;20217;-67
2022/04/01 13:04:42;;;;;;;9.10;7.25;;;4.90;99.90;;;;;;5054738;28;20260;-67
2022/04/01 13:07:15;;;;;;;9.18;7.22;;;4.70;99.90;;;;;;5037086;28;20192;-67
2022/04/01 13:09:46;;;;;;;7.68;6.95;;;5.10;99.90;;;;;;5054977;28;20556;-66
2022/04/01 13:12:12;;;;;;;9.10;7.07;;;5.00;99.90;;;;;;5054916;28;20269;-67
2022/04/01 13:14:38;;;;;;;8.48;7.68;;;4.60;99.90;;;;;;5054643;28;20182;-67
2022/04/01 13:17:14;;;;;;;8.75;7.95;;;4.70;99.90;;;;;;5054108;28;20240;-67
2022/04/01 13:19:42;;;;;;;8.10;7.15;;;4.70;99.90;;;;;;5054878;28;20166;-67
2022/04/01 13:22:08;;;;;;;8.27;7.40;;;5.30;99.90;;;;;;5054088;28;20729;-67
2022/04/01 13:24:46;;;;;;;8.35;7.45;;;4.80;99.90;;;;;;5053317;28;20186;-67
2022/04/01 13:27:17;;;;;;;7.97;7.03;;;5.10;99.90;;;;;;5054580;28;20165;-67